sensor_id;sensor_type;location;lat;lon;timestamp;temperature;humidity
19945;DHT22;10134;50.952;6.930;2023-03-01T00:01:39;2.50;93.20
19945;DHT22;10134;50.952;6.930;2023-03-01T00:04:06;2.50;93.10
19945;DHT22;10134;50.952;6.930;2023-03-01T00:06:34;2.50;93.00
19945;DHT22;10134;50.952;6.930;2023-03-01T00:09:01;2.50;93.10
19945;DHT22;10134;50.952;6.930;2023-03-01T00:11:29;2.50;93.30
19945;DHT22;10134;50.952;6.930;2023-03-01T00:13:59;2.40;93.50
19945;DHT22;10134;50.952;6.930;2023-03-01T00:16:31;2.40;93.70
19945;DHT22;10134;50.952;6.930;2023-03-01T00:19:00;2.30;93.80
19945;DHT22;10134;50.952;6.930;2023-03-01T00:21:28;2.40;94.30
19945;DHT22;10134;50.952;6.930;2023-03-01T00:23:56;2.30;94.40
19945;DHT22;10134;50.952;6.930;2023-03-01T00:26:25;2.30;94.10
19945;DHT22;10134;50.952;6.930;2023-03-01T00:28:53;2.30;94.10
19945;DHT22;10134;50.952;6.930;2023-03-01T00:31:24;2.30;94.20
19945;DHT22;10134;50.952;6.930;2023-03-01T00:33:53;2.30;94.10
19945;DHT22;10134;50.952;6.930;2023-03-01T00:36:26;2.30;94.20
19945;DHT22;10134;50.952;6.930;2023-03-01T00:38:54;2.30;94.30
19945;DHT22;10134;50.952;6.930;2023-03-01T00:41:22;2.20;94.40
19945;DHT22;10134;50.952;6.930;2023-03-01T00:43:50;2.20;94.40
19945;DHT22;10134;50.952;6.930;2023-03-01T00:46:20;2.20;94.60
19945;DHT22;10134;50.952;6.930;2023-03-01T00:48:49;2.20;95.00
19945;DHT22;10134;50.952;6.930;2023-03-01T00:51:19;2.20;94.70
19945;DHT22;10134;50.952;6.930;2023-03-01T00:53:49;2.20;94.70
19945;DHT22;10134;50.952;6.930;2023-03-01T00:56:18;2.20;94.90
19945;DHT22;10134;50.952;6.930;2023-03-01T00:58:45;2.10;95.00
19945;DHT22;10134;50.952;6.930;2023-03-01T01:01:19;2.10;95.00
19945;DHT22;10134;50.952;6.930;2023-03-01T01:03:55;2.10;95.30
19945;DHT22;10134;50.952;6.930;2023-03-01T01:06:34;2.00;95.40
19945;DHT22;10134;50.952;6.930;2023-03-01T01:09:05;2.00;95.50
19945;DHT22;10134;50.952;6.930;2023-03-01T01:11:32;2.00;95.60
19945;DHT22;10134;50.952;6.930;2023-03-01T01:13:59;2.00;95.70
19945;DHT22;10134;50.952;6.930;2023-03-01T01:16:29;2.00;95.70
19945;DHT22;10134;50.952;6.930;2023-03-01T01:18:57;2.00;95.80
19945;DHT22;10134;50.952;6.930;2023-03-01T01:21:25;2.00;95.70
19945;DHT22;10134;50.952;6.930;2023-03-01T01:23:53;1.90;95.80
19945;DHT22;10134;50.952;6.930;2023-03-01T01:26:23;1.90;95.90
19945;DHT22;10134;50.952;6.930;2023-03-01T01:28:50;1.90;95.90
19945;DHT22;10134;50.952;6.930;2023-03-01T01:31:18;1.90;95.80
19945;DHT22;10134;50.952;6.930;2023-03-01T01:33:46;1.90;95.90
19945;DHT22;10134;50.952;6.930;2023-03-01T01:36:14;1.90;95.90
19945;DHT22;10134;50.952;6.930;2023-03-01T01:38:41;1.90;96.10
19945;DHT22;10134;50.952;6.930;2023-03-01T01:41:11;1.80;96.10
19945;DHT22;10134;50.952;6.930;2023-03-01T01:44:09;1.90;96.00
19945;DHT22;10134;50.952;6.930;2023-03-01T01:46:43;1.90;96.10
19945;DHT22;10134;50.952;6.930;2023-03-01T01:49:24;1.80;96.00
19945;DHT22;10134;50.952;6.930;2023-03-01T01:52:02;1.80;96.20
19945;DHT22;10134;50.952;6.930;2023-03-01T01:55:02;1.80;96.40
19945;DHT22;10134;50.952;6.930;2023-03-01T01:57:31;1.80;96.00
19945;DHT22;10134;50.952;6.930;2023-03-01T02:00:14;1.80;96.00
19945;DHT22;10134;50.952;6.930;2023-03-01T02:02:44;1.80;96.00
19945;DHT22;10134;50.952;6.930;2023-03-01T02:05:29;1.80;96.00
19945;DHT22;10134;50.952;6.930;2023-03-01T02:07:59;1.80;96.10
19945;DHT22;10134;50.952;6.930;2023-03-01T02:10:28;1.80;96.10
19945;DHT22;10134;50.952;6.930;2023-03-01T02:12:55;1.70;96.20
19945;DHT22;10134;50.952;6.930;2023-03-01T02:15:24;1.70;96.20
19945;DHT22;10134;50.952;6.930;2023-03-01T02:17:52;1.70;96.30
19945;DHT22;10134;50.952;6.930;2023-03-01T02:20:29;1.70;96.20
19945;DHT22;10134;50.952;6.930;2023-03-01T02:22:58;1.70;96.10
19945;DHT22;10134;50.952;6.930;2023-03-01T02:28:30;1.70;96.40
19945;DHT22;10134;50.952;6.930;2023-03-01T02:30:57;1.70;96.60
19945;DHT22;10134;50.952;6.930;2023-03-01T02:33:44;1.70;96.40
19945;DHT22;10134;50.952;6.930;2023-03-01T02:36:17;1.60;96.60
19945;DHT22;10134;50.952;6.930;2023-03-01T02:38:48;1.60;96.60
19945;DHT22;10134;50.952;6.930;2023-03-01T02:41:17;1.50;96.70
19945;DHT22;10134;50.952;6.930;2023-03-01T02:43:46;1.60;96.70
19945;DHT22;10134;50.952;6.930;2023-03-01T02:46:21;1.50;96.70
19945;DHT22;10134;50.952;6.930;2023-03-01T02:48:54;1.50;96.70
19945;DHT22;10134;50.952;6.930;2023-03-01T02:57:03;1.50;96.90
19945;DHT22;10134;50.952;6.930;2023-03-01T02:59:33;1.50;97.00
19945;DHT22;10134;50.952;6.930;2023-03-01T03:02:19;1.50;97.10
19945;DHT22;10134;50.952;6.930;2023-03-01T03:04:47;1.40;97.20
19945;DHT22;10134;50.952;6.930;2023-03-01T03:07:15;1.40;97.30
19945;DHT22;10134;50.952;6.930;2023-03-01T03:09:43;1.40;97.60
19945;DHT22;10134;50.952;6.930;2023-03-01T03:12:11;1.40;97.60
19945;DHT22;10134;50.952;6.930;2023-03-01T03:14:39;1.30;97.60
19945;DHT22;10134;50.952;6.930;2023-03-01T03:17:06;1.40;97.50
19945;DHT22;10134;50.952;6.930;2023-03-01T03:19:34;1.40;97.60
19945;DHT22;10134;50.952;6.930;2023-03-01T03:22:01;1.30;97.60
19945;DHT22;10134;50.952;6.930;2023-03-01T03:24:28;1.40;97.70
19945;DHT22;10134;50.952;6.930;2023-03-01T03:27:05;1.40;97.70
19945;DHT22;10134;50.952;6.930;2023-03-01T03:29:32;1.30;97.70
19945;DHT22;10134;50.952;6.930;2023-03-01T03:32:00;1.30;97.90
19945;DHT22;10134;50.952;6.930;2023-03-01T03:34:27;1.30;98.00
19945;DHT22;10134;50.952;6.930;2023-03-01T03:36:55;1.30;98.00
19945;DHT22;10134;50.952;6.930;2023-03-01T03:39:23;1.30;98.10
19945;DHT22;10134;50.952;6.930;2023-03-01T03:41:51;1.20;98.10
19945;DHT22;10134;50.952;6.930;2023-03-01T03:44:18;1.20;98.10
19945;DHT22;10134;50.952;6.930;2023-03-01T03:46:45;1.20;98.10
19945;DHT22;10134;50.952;6.930;2023-03-01T03:49:12;1.20;98.40
19945;DHT22;10134;50.952;6.930;2023-03-01T03:51:40;1.20;98.40
19945;DHT22;10134;50.952;6.930;2023-03-01T03:54:07;1.10;98.50
19945;DHT22;10134;50.952;6.930;2023-03-01T03:56:34;1.10;98.70
19945;DHT22;10134;50.952;6.930;2023-03-01T03:59:02;1.10;98.70
19945;DHT22;10134;50.952;6.930;2023-03-01T04:01:29;1.00;98.80
19945;DHT22;10134;50.952;6.930;2023-03-01T04:03:56;1.00;98.90
19945;DHT22;10134;50.952;6.930;2023-03-01T04:06:31;1.00;99.00
19945;DHT22;10134;50.952;6.930;2023-03-01T04:08:59;1.00;99.00
19945;DHT22;10134;50.952;6.930;2023-03-01T04:11:29;1.00;99.00
19945;DHT22;10134;50.952;6.930;2023-03-01T04:13:57;1.00;99.00
19945;DHT22;10134;50.952;6.930;2023-03-01T04:16:25;1.00;99.20
19945;DHT22;10134;50.952;6.930;2023-03-01T04:18:53;1.00;99.30
19945;DHT22;10134;50.952;6.930;2023-03-01T04:21:21;0.90;99.80
19945;DHT22;10134;50.952;6.930;2023-03-01T04:23:48;0.90;99.50
19945;DHT22;10134;50.952;6.930;2023-03-01T04:26:20;0.90;99.70
19945;DHT22;10134;50.952;6.930;2023-03-01T04:28:47;0.90;99.90
19945;DHT22;10134;50.952;6.930;2023-03-01T04:31:18;0.80;99.90
19945;DHT22;10134;50.952;6.930;2023-03-01T04:33:53;0.80;99.90
19945;DHT22;10134;50.952;6.930;2023-03-01T04:36:23;0.70;99.90
19945;DHT22;10134;50.952;6.930;2023-03-01T04:38:51;0.70;99.90
19945;DHT22;10134;50.952;6.930;2023-03-01T04:41:21;0.70;99.90
19945;DHT22;10134;50.952;6.930;2023-03-01T04:43:49;0.70;99.90
19945;DHT22;10134;50.952;6.930;2023-03-01T04:46:18;0.60;99.90
19945;DHT22;10134;50.952;6.930;2023-03-01T04:48:47;0.60;99.90
19945;DHT22;10134;50.952;6.930;2023-03-01T04:51:15;0.60;99.90
19945;DHT22;10134;50.952;6.930;2023-03-01T04:53:43;0.50;99.90
19945;DHT22;10134;50.952;6.930;2023-03-01T04:56:11;0.50;99.90
19945;DHT22;10134;50.952;6.930;2023-03-01T04:58:41;0.50;99.90
19945;DHT22;10134;50.952;6.930;2023-03-01T05:01:14;0.50;99.90
19945;DHT22;10134;50.952;6.930;2023-03-01T05:03:49;0.50;99.90
19945;DHT22;10134;50.952;6.930;2023-03-01T05:08:47;0.40;99.90
19945;DHT22;10134;50.952;6.930;2023-03-01T05:11:14;0.40;99.90
19945;DHT22;10134;50.952;6.930;2023-03-01T05:13:42;0.40;99.90
19945;DHT22;10134;50.952;6.930;2023-03-01T05:16:09;0.40;99.90
19945;DHT22;10134;50.952;6.930;2023-03-01T05:18:39;0.30;99.90
19945;DHT22;10134;50.952;6.930;2023-03-01T05:21:13;0.20;99.90
19945;DHT22;10134;50.952;6.930;2023-03-01T05:23:44;0.20;99.90
19945;DHT22;10134;50.952;6.930;2023-03-01T05:26:11;0.30;99.90
19945;DHT22;10134;50.952;6.930;2023-03-01T05:28:54;0.20;99.90
19945;DHT22;10134;50.952;6.930;2023-03-01T05:31:26;0.30;99.90
19945;DHT22;10134;50.952;6.930;2023-03-01T05:33:53;0.30;99.90
19945;DHT22;10134;50.952;6.930;2023-03-01T05:36:21;0.20;99.90
19945;DHT22;10134;50.952;6.930;2023-03-01T05:38:48;0.20;99.90
19945;DHT22;10134;50.952;6.930;2023-03-01T05:41:15;0.20;99.90
19945;DHT22;10134;50.952;6.930;2023-03-01T05:43:43;0.20;99.90
19945;DHT22;10134;50.952;6.930;2023-03-01T05:46:12;0.20;99.90
19945;DHT22;10134;50.952;6.930;2023-03-01T05:48:40;0.20;99.90
19945;DHT22;10134;50.952;6.930;2023-03-01T05:51:07;0.20;99.90
19945;DHT22;10134;50.952;6.930;2023-03-01T05:53:35;0.30;99.90
19945;DHT22;10134;50.952;6.930;2023-03-01T05:56:04;0.30;99.90
19945;DHT22;10134;50.952;6.930;2023-03-01T05:58:32;0.30;99.90
19945;DHT22;10134;50.952;6.930;2023-03-01T06:00:59;0.30;99.90
19945;DHT22;10134;50.952;6.930;2023-03-01T06:03:26;0.30;99.90
19945;DHT22;10134;50.952;6.930;2023-03-01T06:05:57;0.20;99.90
19945;DHT22;10134;50.952;6.930;2023-03-01T06:08:24;0.30;99.90
19945;DHT22;10134;50.952;6.930;2023-03-01T06:10:54;0.30;99.90
19945;DHT22;10134;50.952;6.930;2023-03-01T06:13:22;0.30;99.90
19945;DHT22;10134;50.952;6.930;2023-03-01T06:15:50;0.30;99.90
19945;DHT22;10134;50.952;6.930;2023-03-01T06:18:19;0.30;99.90
19945;DHT22;10134;50.952;6.930;2023-03-01T06:20:53;0.30;99.90
19945;DHT22;10134;50.952;6.930;2023-03-01T06:23:22;0.40;99.90
19945;DHT22;10134;50.952;6.930;2023-03-01T06:25:49;0.40;99.90
19945;DHT22;10134;50.952;6.930;2023-03-01T06:28:16;0.40;99.90
19945;DHT22;10134;50.952;6.930;2023-03-01T06:30:44;0.30;99.90
19945;DHT22;10134;50.952;6.930;2023-03-01T06:33:11;0.30;99.90
19945;DHT22;10134;50.952;6.930;2023-03-01T06:35:39;0.30;99.90
19945;DHT22;10134;50.952;6.930;2023-03-01T06:38:07;0.40;99.90
19945;DHT22;10134;50.952;6.930;2023-03-01T06:40:34;0.40;99.90
19945;DHT22;10134;50.952;6.930;2023-03-01T06:43:02;0.40;99.90
19945;DHT22;10134;50.952;6.930;2023-03-01T06:45:30;0.40;99.90
19945;DHT22;10134;50.952;6.930;2023-03-01T06:48:07;0.40;99.90
19945;DHT22;10134;50.952;6.930;2023-03-01T06:50:35;0.40;99.90
19945;DHT22;10134;50.952;6.930;2023-03-01T06:53:03;0.40;99.90
19945;DHT22;10134;50.952;6.930;2023-03-01T06:55:31;0.50;99.90
19945;DHT22;10134;50.952;6.930;2023-03-01T06:57:59;0.50;99.90
19945;DHT22;10134;50.952;6.930;2023-03-01T07:00:28;0.50;99.90
19945;DHT22;10134;50.952;6.930;2023-03-01T07:02:58;0.40;99.90
19945;DHT22;10134;50.952;6.930;2023-03-01T07:05:30;0.50;99.90
19945;DHT22;10134;50.952;6.930;2023-03-01T07:07:57;0.40;99.90
19945;DHT22;10134;50.952;6.930;2023-03-01T07:10:25;0.40;99.90
19945;DHT22;10134;50.952;6.930;2023-03-01T07:12:56;0.40;99.90
19945;DHT22;10134;50.952;6.930;2023-03-01T07:15:25;0.40;99.90
19945;DHT22;10134;50.952;6.930;2023-03-01T07:17:53;0.50;99.90
19945;DHT22;10134;50.952;6.930;2023-03-01T07:20:20;0.50;99.90
19945;DHT22;10134;50.952;6.930;2023-03-01T07:22:54;0.60;99.90
19945;DHT22;10134;50.952;6.930;2023-03-01T07:25:22;0.60;99.90
19945;DHT22;10134;50.952;6.930;2023-03-01T07:27:51;0.70;99.90
19945;DHT22;10134;50.952;6.930;2023-03-01T07:30:19;0.70;99.90
19945;DHT22;10134;50.952;6.930;2023-03-01T07:32:47;0.80;99.90
19945;DHT22;10134;50.952;6.930;2023-03-01T07:35:14;0.80;99.90
19945;DHT22;10134;50.952;6.930;2023-03-01T07:37:41;0.80;99.90
19945;DHT22;10134;50.952;6.930;2023-03-01T07:40:10;0.90;99.90
19945;DHT22;10134;50.952;6.930;2023-03-01T07:42:37;1.00;99.90
19945;DHT22;10134;50.952;6.930;2023-03-01T07:45:05;1.00;99.90
19945;DHT22;10134;50.952;6.930;2023-03-01T07:47:33;1.10;99.90
19945;DHT22;10134;50.952;6.930;2023-03-01T07:50:00;1.10;99.90
19945;DHT22;10134;50.952;6.930;2023-03-01T07:52:28;1.10;99.90
19945;DHT22;10134;50.952;6.930;2023-03-01T07:54:56;1.20;99.90
19945;DHT22;10134;50.952;6.930;2023-03-01T07:57:23;1.30;99.90
19945;DHT22;10134;50.952;6.930;2023-03-01T07:59:50;1.30;99.90
19945;DHT22;10134;50.952;6.930;2023-03-01T08:02:18;1.40;99.90
19945;DHT22;10134;50.952;6.930;2023-03-01T08:04:45;1.50;99.90
19945;DHT22;10134;50.952;6.930;2023-03-01T08:07:13;1.50;99.90
19945;DHT22;10134;50.952;6.930;2023-03-01T08:09:40;1.60;99.90
19945;DHT22;10134;50.952;6.930;2023-03-01T08:12:07;1.70;99.90
19945;DHT22;10134;50.952;6.930;2023-03-01T08:14:34;1.70;99.90
19945;DHT22;10134;50.952;6.930;2023-03-01T08:17:02;1.80;99.90
19945;DHT22;10134;50.952;6.930;2023-03-01T08:19:30;1.90;99.90
19945;DHT22;10134;50.952;6.930;2023-03-01T08:21:58;1.90;99.90
19945;DHT22;10134;50.952;6.930;2023-03-01T08:24:25;2.00;99.90
19945;DHT22;10134;50.952;6.930;2023-03-01T08:26:53;2.00;99.90
19945;DHT22;10134;50.952;6.930;2023-03-01T08:29:21;2.10;99.90
19945;DHT22;10134;50.952;6.930;2023-03-01T08:31:49;2.20;99.90
19945;DHT22;10134;50.952;6.930;2023-03-01T08:34:18;2.20;99.90
19945;DHT22;10134;50.952;6.930;2023-03-01T08:36:46;2.30;99.90
19945;DHT22;10134;50.952;6.930;2023-03-01T08:39:15;2.40;99.90
19945;DHT22;10134;50.952;6.930;2023-03-01T08:41:43;2.40;99.90
19945;DHT22;10134;50.952;6.930;2023-03-01T08:44:15;2.50;99.90
19945;DHT22;10134;50.952;6.930;2023-03-01T08:46:44;2.60;99.90
19945;DHT22;10134;50.952;6.930;2023-03-01T08:49:17;2.60;99.80
19945;DHT22;10134;50.952;6.930;2023-03-01T08:51:46;2.70;99.60
19945;DHT22;10134;50.952;6.930;2023-03-01T08:54:19;2.80;99.40
19945;DHT22;10134;50.952;6.930;2023-03-01T08:56:48;2.80;99.20
19945;DHT22;10134;50.952;6.930;2023-03-01T08:59:16;2.90;99.10
19945;DHT22;10134;50.952;6.930;2023-03-01T09:01:44;3.00;98.80
19945;DHT22;10134;50.952;6.930;2023-03-01T09:04:12;3.00;98.60
19945;DHT22;10134;50.952;6.930;2023-03-01T09:06:40;3.10;98.20
19945;DHT22;10134;50.952;6.930;2023-03-01T09:09:13;3.20;98.10
19945;DHT22;10134;50.952;6.930;2023-03-01T09:11:42;3.30;97.90
19945;DHT22;10134;50.952;6.930;2023-03-01T09:14:11;3.30;97.80
19945;DHT22;10134;50.952;6.930;2023-03-01T09:16:39;3.40;97.60
19945;DHT22;10134;50.952;6.930;2023-03-01T09:19:07;3.50;97.20
19945;DHT22;10134;50.952;6.930;2023-03-01T09:21:34;3.50;96.60
19945;DHT22;10134;50.952;6.930;2023-03-01T09:24:12;3.60;96.30
19945;DHT22;10134;50.952;6.930;2023-03-01T09:26:40;3.70;95.80
19945;DHT22;10134;50.952;6.930;2023-03-01T09:29:08;3.70;95.50
19945;DHT22;10134;50.952;6.930;2023-03-01T09:31:37;3.80;95.30
19945;DHT22;10134;50.952;6.930;2023-03-01T09:34:05;3.90;95.20
19945;DHT22;10134;50.952;6.930;2023-03-01T09:36:33;3.90;95.00
19945;DHT22;10134;50.952;6.930;2023-03-01T09:39:01;4.00;94.90
19945;DHT22;10134;50.952;6.930;2023-03-01T09:44:23;4.10;94.30
19945;DHT22;10134;50.952;6.930;2023-03-01T09:46:55;4.20;93.90
19945;DHT22;10134;50.952;6.930;2023-03-01T09:49:35;4.20;93.50
19945;DHT22;10134;50.952;6.930;2023-03-01T09:52:29;4.30;93.10
19945;DHT22;10134;50.952;6.930;2023-03-01T09:54:59;4.40;92.60
19945;DHT22;10134;50.952;6.930;2023-03-01T09:57:33;4.40;92.50
19945;DHT22;10134;50.952;6.930;2023-03-01T10:08:27;4.60;91.60
19945;DHT22;10134;50.952;6.930;2023-03-01T10:10:57;4.70;91.30
19945;DHT22;10134;50.952;6.930;2023-03-01T10:13:37;4.70;91.30
19945;DHT22;10134;50.952;6.930;2023-03-01T10:16:13;4.80;91.00
19945;DHT22;10134;50.952;6.930;2023-03-01T10:18:46;4.80;91.00
19945;DHT22;10134;50.952;6.930;2023-03-01T10:21:18;4.90;91.00
19945;DHT22;10134;50.952;6.930;2023-03-01T10:23:47;5.00;90.80
19945;DHT22;10134;50.952;6.930;2023-03-01T10:34:11;5.10;88.90
19945;DHT22;10134;50.952;6.930;2023-03-01T10:36:40;5.20;88.90
19945;DHT22;10134;50.952;6.930;2023-03-01T10:39:20;5.30;88.60
19945;DHT22;10134;50.952;6.930;2023-03-01T10:42:03;5.30;88.40
19945;DHT22;10134;50.952;6.930;2023-03-01T10:44:58;5.30;88.50
19945;DHT22;10134;50.952;6.930;2023-03-01T10:47:28;5.40;88.00
19945;DHT22;10134;50.952;6.930;2023-03-01T10:50:04;5.50;88.10
19945;DHT22;10134;50.952;6.930;2023-03-01T10:52:37;5.50;87.30
19945;DHT22;10134;50.952;6.930;2023-03-01T10:57:43;5.60;86.50
19945;DHT22;10134;50.952;6.930;2023-03-01T11:00:15;5.70;86.20
19945;DHT22;10134;50.952;6.930;2023-03-01T11:05:25;5.80;85.40
19945;DHT22;10134;50.952;6.930;2023-03-01T11:07:57;5.80;85.00
19945;DHT22;10134;50.952;6.930;2023-03-01T11:10:27;5.80;84.70
19945;DHT22;10134;50.952;6.930;2023-03-01T11:13:14;5.90;84.50
19945;DHT22;10134;50.952;6.930;2023-03-01T11:15:43;5.90;84.30
19945;DHT22;10134;50.952;6.930;2023-03-01T11:18:26;6.00;84.20
19945;DHT22;10134;50.952;6.930;2023-03-01T11:21:13;6.00;84.40
19945;DHT22;10134;50.952;6.930;2023-03-01T11:23:43;6.10;84.40
19945;DHT22;10134;50.952;6.930;2023-03-01T11:26:13;6.10;84.30
19945;DHT22;10134;50.952;6.930;2023-03-01T11:28:42;6.10;84.10
19945;DHT22;10134;50.952;6.930;2023-03-01T11:31:11;6.20;83.80
19945;DHT22;10134;50.952;6.930;2023-03-01T11:33:44;6.20;83.10
19945;DHT22;10134;50.952;6.930;2023-03-01T11:36:40;6.30;83.00
19945;DHT22;10134;50.952;6.930;2023-03-01T11:39:41;6.30;81.50
19945;DHT22;10134;50.952;6.930;2023-03-01T11:42:17;6.40;81.30
19945;DHT22;10134;50.952;6.930;2023-03-01T11:44:48;6.40;81.60
19945;DHT22;10134;50.952;6.930;2023-03-01T11:50:46;6.50;81.90
19945;DHT22;10134;50.952;6.930;2023-03-01T12:07:53;6.90;80.90
19945;DHT22;10134;50.952;6.930;2023-03-01T12:10:27;7.00;80.50
19945;DHT22;10134;50.952;6.930;2023-03-01T12:26:58;7.30;79.10
19945;DHT22;10134;50.952;6.930;2023-03-01T12:32:42;7.40;79.40
19945;DHT22;10134;50.952;6.930;2023-03-01T12:38:24;7.50;79.50
19945;DHT22;10134;50.952;6.930;2023-03-01T12:44:12;7.70;79.30
19945;DHT22;10134;50.952;6.930;2023-03-01T12:47:19;7.70;79.30
19945;DHT22;10134;50.952;6.930;2023-03-01T12:49:55;7.80;78.10
19945;DHT22;10134;50.952;6.930;2023-03-01T12:52:44;7.90;77.70
19945;DHT22;10134;50.952;6.930;2023-03-01T12:55:42;7.90;77.40
19945;DHT22;10134;50.952;6.930;2023-03-01T13:03:26;8.10;76.50
19945;DHT22;10134;50.952;6.930;2023-03-01T13:11:53;8.30;76.90
19945;DHT22;10134;50.952;6.930;2023-03-01T13:14:44;8.30;76.90
19945;DHT22;10134;50.952;6.930;2023-03-01T13:17:33;8.40;76.60
19945;DHT22;10134;50.952;6.930;2023-03-01T13:20:13;8.40;75.80
19945;DHT22;10134;50.952;6.930;2023-03-01T13:22:40;8.50;75.70
19945;DHT22;10134;50.952;6.930;2023-03-01T13:25:20;8.50;75.50
19945;DHT22;10134;50.952;6.930;2023-03-01T13:30:58;8.60;75.10
19945;DHT22;10134;50.952;6.930;2023-03-01T13:33:33;8.70;73.90
19945;DHT22;10134;50.952;6.930;2023-03-01T13:36:01;8.70;73.90
19945;DHT22;10134;50.952;6.930;2023-03-01T13:38:46;8.80;73.50
19945;DHT22;10134;50.952;6.930;2023-03-01T13:44:30;8.90;72.80
19945;DHT22;10134;50.952;6.930;2023-03-01T13:49:48;9.00;72.80
19945;DHT22;10134;50.952;6.930;2023-03-01T13:52:44;9.00;71.60
19945;DHT22;10134;50.952;6.930;2023-03-01T13:57:44;9.20;71.60
19945;DHT22;10134;50.952;6.930;2023-03-01T14:00:33;9.30;71.10
19945;DHT22;10134;50.952;6.930;2023-03-01T14:03:05;9.30;70.60
19945;DHT22;10134;50.952;6.930;2023-03-01T14:05:33;9.40;69.20
19945;DHT22;10134;50.952;6.930;2023-03-01T14:08:02;9.40;69.10
19945;DHT22;10134;50.952;6.930;2023-03-01T14:10:39;9.50;68.60
19945;DHT22;10134;50.952;6.930;2023-03-01T14:13:14;9.50;68.20
19945;DHT22;10134;50.952;6.930;2023-03-01T14:18:47;9.60;68.60
19945;DHT22;10134;50.952;6.930;2023-03-01T14:21:19;9.60;67.70
19945;DHT22;10134;50.952;6.930;2023-03-01T14:23:47;9.60;67.60
19945;DHT22;10134;50.952;6.930;2023-03-01T14:26:20;9.60;67.70
19945;DHT22;10134;50.952;6.930;2023-03-01T14:28:49;9.70;67.50
19945;DHT22;10134;50.952;6.930;2023-03-01T14:31:36;9.70;67.90
19945;DHT22;10134;50.952;6.930;2023-03-01T14:34:23;9.70;66.80
19945;DHT22;10134;50.952;6.930;2023-03-01T14:36:51;9.80;67.40
19945;DHT22;10134;50.952;6.930;2023-03-01T14:39:25;9.80;68.10
19945;DHT22;10134;50.952;6.930;2023-03-01T14:41:53;9.80;68.30
19945;DHT22;10134;50.952;6.930;2023-03-01T14:44:24;9.80;68.40
19945;DHT22;10134;50.952;6.930;2023-03-01T14:46:54;9.80;68.40
19945;DHT22;10134;50.952;6.930;2023-03-01T14:49:27;9.80;68.40
19945;DHT22;10134;50.952;6.930;2023-03-01T14:52:05;9.80;68.70
19945;DHT22;10134;50.952;6.930;2023-03-01T14:54:40;9.80;68.80
19945;DHT22;10134;50.952;6.930;2023-03-01T14:57:18;9.80;68.70
19945;DHT22;10134;50.952;6.930;2023-03-01T14:59:46;9.70;69.10
19945;DHT22;10134;50.952;6.930;2023-03-01T15:02:18;9.60;69.50
19945;DHT22;10134;50.952;6.930;2023-03-01T15:04:48;9.60;69.40
19945;DHT22;10134;50.952;6.930;2023-03-01T15:07:16;9.60;69.30
19945;DHT22;10134;50.952;6.930;2023-03-01T15:09:45;9.50;69.40
19945;DHT22;10134;50.952;6.930;2023-03-01T15:14:56;9.50;70.50
19945;DHT22;10134;50.952;6.930;2023-03-01T15:17:33;9.40;70.70
19945;DHT22;10134;50.952;6.930;2023-03-01T15:20:03;9.40;71.10
19945;DHT22;10134;50.952;6.930;2023-03-01T15:22:31;9.40;71.20
19945;DHT22;10134;50.952;6.930;2023-03-01T15:24:59;9.30;71.40
19945;DHT22;10134;50.952;6.930;2023-03-01T15:27:27;9.30;71.50
19945;DHT22;10134;50.952;6.930;2023-03-01T15:30:02;9.30;71.70
19945;DHT22;10134;50.952;6.930;2023-03-01T15:32:35;9.20;71.90
19945;DHT22;10134;50.952;6.930;2023-03-01T15:35:43;9.20;72.10
19945;DHT22;10134;50.952;6.930;2023-03-01T15:38:49;9.10;72.30
19945;DHT22;10134;50.952;6.930;2023-03-01T15:41:24;9.10;72.30
19945;DHT22;10134;50.952;6.930;2023-03-01T15:43:53;9.00;71.90
19945;DHT22;10134;50.952;6.930;2023-03-01T15:46:30;9.00;72.00
19945;DHT22;10134;50.952;6.930;2023-03-01T15:49:26;8.90;71.70
19945;DHT22;10134;50.952;6.930;2023-03-01T15:51:54;8.90;71.90
19945;DHT22;10134;50.952;6.930;2023-03-01T15:54:24;8.90;71.50
19945;DHT22;10134;50.952;6.930;2023-03-01T15:56:52;8.80;71.30
19945;DHT22;10134;50.952;6.930;2023-03-01T15:59:19;8.80;71.60
19945;DHT22;10134;50.952;6.930;2023-03-01T16:01:47;8.80;71.80
19945;DHT22;10134;50.952;6.930;2023-03-01T16:04:18;8.80;71.70
19945;DHT22;10134;50.952;6.930;2023-03-01T16:06:53;8.70;71.40
19945;DHT22;10134;50.952;6.930;2023-03-01T16:09:24;8.70;71.40
19945;DHT22;10134;50.952;6.930;2023-03-01T16:11:53;8.60;71.40
19945;DHT22;10134;50.952;6.930;2023-03-01T16:14:21;8.60;71.60
19945;DHT22;10134;50.952;6.930;2023-03-01T16:16:49;8.60;72.00
19945;DHT22;10134;50.952;6.930;2023-03-01T16:19:16;8.60;71.90
19945;DHT22;10134;50.952;6.930;2023-03-01T16:21:44;8.50;72.10
19945;DHT22;10134;50.952;6.930;2023-03-01T16:24:14;8.50;72.30
19945;DHT22;10134;50.952;6.930;2023-03-01T16:26:41;8.50;72.50
19945;DHT22;10134;50.952;6.930;2023-03-01T16:29:09;8.40;72.40
19945;DHT22;10134;50.952;6.930;2023-03-01T16:31:36;8.40;72.60
19945;DHT22;10134;50.952;6.930;2023-03-01T16:34:04;8.30;72.60
19945;DHT22;10134;50.952;6.930;2023-03-01T16:36:31;8.30;72.60
19945;DHT22;10134;50.952;6.930;2023-03-01T16:38:59;8.30;72.50
19945;DHT22;10134;50.952;6.930;2023-03-01T16:41:30;8.20;72.70
19945;DHT22;10134;50.952;6.930;2023-03-01T16:43:58;8.20;72.90
19945;DHT22;10134;50.952;6.930;2023-03-01T16:46:28;8.20;72.60
19945;DHT22;10134;50.952;6.930;2023-03-01T16:48:56;8.10;72.30
19945;DHT22;10134;50.952;6.930;2023-03-01T16:51:24;8.10;72.30
19945;DHT22;10134;50.952;6.930;2023-03-01T16:53:52;8.10;72.30
19945;DHT22;10134;50.952;6.930;2023-03-01T16:56:19;8.00;72.20
19945;DHT22;10134;50.952;6.930;2023-03-01T16:58:47;8.00;72.20
19945;DHT22;10134;50.952;6.930;2023-03-01T17:01:17;8.00;72.20
19945;DHT22;10134;50.952;6.930;2023-03-01T17:03:46;7.90;72.30
19945;DHT22;10134;50.952;6.930;2023-03-01T17:06:18;7.90;72.30
19945;DHT22;10134;50.952;6.930;2023-03-01T17:08:47;7.80;72.40
19945;DHT22;10134;50.952;6.930;2023-03-01T17:11:18;7.80;72.60
19945;DHT22;10134;50.952;6.930;2023-03-01T17:13:46;7.70;72.60
19945;DHT22;10134;50.952;6.930;2023-03-01T17:16:16;7.70;72.60
19945;DHT22;10134;50.952;6.930;2023-03-01T17:18:44;7.60;72.50
19945;DHT22;10134;50.952;6.930;2023-03-01T17:21:12;7.60;72.70
19945;DHT22;10134;50.952;6.930;2023-03-01T17:23:41;7.50;73.10
19945;DHT22;10134;50.952;6.930;2023-03-01T17:26:09;7.50;73.40
19945;DHT22;10134;50.952;6.930;2023-03-01T17:28:37;7.40;73.10
19945;DHT22;10134;50.952;6.930;2023-03-01T17:31:06;7.40;73.30
19945;DHT22;10134;50.952;6.930;2023-03-01T17:33:34;7.40;73.20
19945;DHT22;10134;50.952;6.930;2023-03-01T17:36:01;7.40;73.20
19945;DHT22;10134;50.952;6.930;2023-03-01T17:38:29;7.30;73.10
19945;DHT22;10134;50.952;6.930;2023-03-01T17:40:59;7.30;73.30
19945;DHT22;10134;50.952;6.930;2023-03-01T17:43:27;7.20;73.00
19945;DHT22;10134;50.952;6.930;2023-03-01T17:45:56;7.20;73.20
19945;DHT22;10134;50.952;6.930;2023-03-01T17:48:24;7.20;73.20
19945;DHT22;10134;50.952;6.930;2023-03-01T17:50:52;7.20;73.40
19945;DHT22;10134;50.952;6.930;2023-03-01T17:53:19;7.10;73.30
19945;DHT22;10134;50.952;6.930;2023-03-01T17:55:47;7.10;73.50